Time;durP1;ratioP1;P1;durP2;ratioP2;P2;SDS_P1;SDS_P2;PMS_P1;PMS_P2;Temp;Humidity;BMP_temperature;BMP_pressure;BME280_temperature;BME280_humidity;BME280_pressure;Samples;Min_cycle;Max_cycle;Signal;HPM_P1;HPM_P2
2024/03/05 00:01:40;;;;;;;41.28;30.80;;;;;;;9.76;70.58;93748.69;4241346;27;20158;-71
2024/03/05 00:03:42;;;;;;;39.05;31.02;;;;;;;9.84;70.07;93746.00;4243365;27;20051;-70
2024/03/05 00:05:44;;;;;;;39.47;30.42;;;;;;;9.86;69.26;93743.22;4239935;27;20396;-69
2024/03/05 00:07:46;;;;;;;38.20;30.10;;;;;;;9.82;69.01;93733.09;4240626;27;20055;-70
2024/03/05 00:09:48;;;;;;;38.22;30.13;;;;;;;9.82;69.62;93742.75;4234173;27;20051;-71
2024/03/05 00:11:50;;;;;;;40.17;30.88;;;;;;;9.90;69.41;93739.25;4206081;28;20044;-69
2024/03/05 00:13:52;;;;;;;38.28;29.17;;;;;;;9.90;68.84;93734.03;4244573;27;20054;-69
2024/03/05 00:15:54;;;;;;;36.72;28.55;;;;;;;9.90;68.75;93740.06;4242079;27;20468;-69
2024/03/05 00:17:56;;;;;;;34.80;27.88;;;;;;;9.91;68.31;93730.41;4239745;27;20067;-73
2024/03/05 00:19:58;;;;;;;37.38;28.25;;;;;;;9.95;68.14;93736.91;4224701;27;20051;-70
2024/03/05 00:22:00;;;;;;;36.17;28.00;;;;;;;9.97;67.80;93730.50;4234846;27;20525;-69
2024/03/05 00:24:02;;;;;;;36.88;27.15;;;;;;;9.99;68.05;93725.91;4242001;27;20134;-72
2024/03/05 00:26:05;;;;;;;35.38;28.35;;;;;;;9.96;67.71;93722.81;4240971;27;20042;-68
2024/03/05 00:28:08;;;;;;;36.53;29.38;;;;;;;9.98;67.53;93720.84;4243107;27;20201;-68
2024/03/05 00:30:13;;;;;;;34.75;26.48;;;;;;;10.05;67.52;93721.78;4237824;27;20501;-71
2024/03/05 00:32:16;;;;;;;40.20;29.10;;;;;;;10.10;67.29;93716.00;4243275;27;20134;-71
2024/03/05 00:34:17;;;;;;;36.90;28.35;;;;;;;10.10;67.17;93722.03;4243586;27;20047;-70
2024/03/05 00:36:19;;;;;;;32.60;27.15;;;;;;;10.12;66.78;93721.88;4238772;27;20057;-70
2024/03/05 00:38:21;;;;;;;37.13;27.38;;;;;;;10.11;67.42;93718.44;4231729;27;20062;-68
2024/03/05 00:40:34;;;;;;;37.40;27.58;;;;;;;10.03;67.29;93723.75;4232868;27;20039;-70
2024/03/05 00:42:37;;;;;;;34.65;27.88;;;;;;;9.98;67.96;93718.22;4244118;27;20551;-69
2024/03/05 00:44:38;;;;;;;34.17;27.08;;;;;;;10.00;67.71;93714.47;4234260;27;20139;-70
2024/03/05 00:46:40;;;;;;;38.10;28.63;;;;;;;9.94;68.14;93709.16;4224970;28;20419;-69
2024/03/05 00:48:42;;;;;;;41.50;29.52;;;;;;;9.90;67.92;93708.69;4233224;27;20469;-71
2024/03/05 00:50:44;;;;;;;33.42;27.05;;;;;;;9.92;68.00;93708.50;4239820;27;20047;-69
2024/03/05 00:52:46;;;;;;;40.03;28.92;;;;;;;9.95;68.02;93700.28;4239891;27;20043;-70
2024/03/05 00:54:49;;;;;;;40.33;27.38;;;;;;;10.03;67.95;93701.00;4224854;28;20085;-71
2024/03/05 00:56:51;;;;;;;41.92;29.77;;;;;;;10.10;67.60;93692.44;4241500;27;20384;-71
2024/03/05 00:58:53;;;;;;;36.10;28.33;;;;;;;10.10;67.71;93689.81;4242344;27;20047;-70
2024/03/05 01:00:55;;;;;;;39.00;29.52;;;;;;;10.00;68.24;93697.94;4225005;28;20067;-70
2024/03/05 01:02:57;;;;;;;35.30;29.20;;;;;;;9.99;68.04;93691.09;4241675;27;20134;-69
2024/03/05 01:04:59;;;;;;;36.17;29.58;;;;;;;10.01;68.31;93695.16;4229793;27;20073;-70
2024/03/05 01:07:01;;;;;;;35.47;28.98;;;;;;;10.00;68.27;93690.09;4240915;27;20055;-71
2024/03/05 01:09:07;;;;;;;41.03;30.38;;;;;;;10.01;68.24;93683.88;4243176;27;20047;-71
2024/03/05 01:11:09;;;;;;;40.70;29.42;;;;;;;10.04;68.44;93683.50;4236008;27;20131;-71
2024/03/05 01:13:11;;;;;;;36.78;28.80;;;;;;;10.03;68.37;93682.69;4207966;28;20044;-71
2024/03/05 01:15:13;;;;;;;39.42;29.65;;;;;;;10.01;68.33;93683.88;4243419;27;20365;-71
2024/03/05 01:17:14;;;;;;;34.10;27.52;;;;;;;9.98;68.50;93679.00;4242283;27;20483;-70
2024/03/05 01:19:16;;;;;;;38.30;29.63;;;;;;;9.91;69.00;93684.13;4232490;27;20053;-70
2024/03/05 01:21:20;;;;;;;38.65;29.27;;;;;;;9.92;68.97;93679.72;4241042;27;20467;-69
2024/03/05 01:23:22;;;;;;;37.33;28.45;;;;;;;9.95;68.84;93676.75;4241466;27;20495;-70
2024/03/05 01:25:24;;;;;;;39.03;28.17;;;;;;;9.91;68.55;93673.66;4216135;28;20400;-70
2024/03/05 01:27:27;;;;;;;36.15;28.30;;;;;;;9.82;69.04;93678.16;4224165;28;20054;-69
2024/03/05 01:29:30;;;;;;;37.00;29.67;;;;;;;9.77;69.06;93682.34;4243425;27;20047;-69
2024/03/05 01:31:33;;;;;;;42.35;29.38;;;;;;;9.74;69.91;93678.25;4223945;28;20047;-70
2024/03/05 01:33:36;;;;;;;37.25;28.73;;;;;;;9.66;69.81;93670.50;4205129;28;20110;-69
2024/03/05 01:35:38;;;;;;;38.92;30.08;;;;;;;9.58;69.75;93675.81;4236833;27;20076;-71
2024/03/05 01:37:40;;;;;;;36.50;28.92;;;;;;;9.60;70.01;93672.03;4239527;27;20055;-71
2024/03/05 01:39:42;;;;;;;37.90;28.08;;;;;;;9.65;70.41;93668.88;4239106;27;20044;-69
2024/03/05 01:41:44;;;;;;;38.08;29.80;;;;;;;9.74;69.95;93659.13;4243662;27;20051;-70
2024/03/05 01:43:46;;;;;;;38.53;28.75;;;;;;;9.70;69.74;93657.88;4233148;27;20127;-70
2024/03/05 01:45:48;;;;;;;38.58;30.00;;;;;;;9.68;69.83;93655.44;4239749;27;20443;-70
2024/03/05 01:47:50;;;;;;;36.78;29.70;;;;;;;9.68;69.97;93652.84;4212115;28;20040;-68
2024/03/05 01:49:54;;;;;;;43.53;28.67;;;;;;;9.73;70.09;93652.28;4243454;27;20150;-70
2024/03/05 01:51:57;;;;;;;36.63;28.30;;;;;;;9.66;70.01;93646.97;4241811;27;20053;-70
2024/03/05 01:53:59;;;;;;;40.72;28.70;;;;;;;9.60;70.02;93652.91;4242312;27;20089;-69
2024/03/05 01:56:03;;;;;;;39.05;28.88;;;;;;;9.56;70.30;93644.59;4243360;27;20035;-71
2024/03/05 01:58:08;;;;;;;36.13;28.52;;;;;;;9.60;70.67;93645.88;4237438;27;20051;-69
2024/03/05 02:00:11;;;;;;;37.65;28.50;;;;;;;9.49;70.68;93642.91;4219281;28;20432;-70
2024/03/05 02:02:13;;;;;;;38.03;28.30;;;;;;;9.44;70.39;93646.03;4221288;28;20510;-72
2024/03/05 02:04:15;;;;;;;35.03;28.38;;;;;;;9.42;71.02;93638.38;4241656;27;20103;-70
2024/03/05 02:06:18;;;;;;;40.63;29.40;;;;;;;9.37;70.97;93642.50;4242566;27;20149;-71
2024/03/05 02:08:21;;;;;;;35.97;26.70;;;;;;;9.37;70.92;93645.91;4242956;27;20054;-71
2024/03/05 02:10:23;;;;;;;38.40;28.52;;;;;;;9.41;70.67;93641.97;4239098;27;20059;-71
2024/03/05 02:12:24;;;;;;;39.45;28.08;;;;;;;9.45;70.55;93646.84;4239940;27;20096;-70
2024/03/05 02:14:27;;;;;;;39.30;28.67;;;;;;;9.32;70.79;93634.38;4219854;28;20059;-69
2024/03/05 02:16:29;;;;;;;36.27;27.27;;;;;;;9.21;71.13;93643.47;4235439;27;20488;-71
2024/03/05 02:18:32;;;;;;;38.10;28.77;;;;;;;9.15;71.35;93647.59;4242550;27;20691;-70
2024/03/05 02:20:34;;;;;;;38.58;29.13;;;;;;;9.19;71.62;93638.41;4241581;27;20146;-70
2024/03/05 02:22:39;;;;;;;34.08;28.17;;;;;;;9.23;71.59;93638.88;4239355;28;20401;-71
2024/03/05 02:24:41;;;;;;;38.15;28.52;;;;;;;9.26;71.36;93641.13;4242667;28;20109;-70
2024/03/05 02:26:43;;;;;;;39.30;28.90;;;;;;;9.32;71.14;93637.81;4242648;28;20111;-71
2024/03/05 02:28:47;;;;;;;39.33;28.58;;;;;;;9.33;71.41;93639.41;4241557;28;20083;-71
2024/03/05 02:30:49;;;;;;;40.80;29.63;;;;;;;9.37;71.55;93643.31;4224286;28;20171;-70
2024/03/05 02:32:51;;;;;;;38.65;29.55;;;;;;;9.35;71.05;93647.91;4224028;28;20486;-70
2024/03/05 02:34:54;;;;;;;40.58;29.45;;;;;;;9.36;71.13;93646.91;4239000;28;20340;-71
2024/03/05 02:36:57;;;;;;;38.45;29.08;;;;;;;9.27;72.25;93641.94;4240482;28;20067;-69
2024/03/05 02:39:00;;;;;;;;;;;;;;;9.25;71.94;93651.75;4234556;28;20074;-70
2024/03/05 02:41:02;;;;;;;39.45;29.38;;;;;;;9.27;72.48;93649.78;4222941;28;20412;-70
2024/03/05 02:43:06;;;;;;;42.30;30.02;;;;;;;9.23;71.95;93649.34;4236969;28;20354;-70
2024/03/05 02:45:11;;;;;;;42.83;31.80;;;;;;;9.26;72.41;93645.53;4239154;28;20043;-69
2024/03/05 02:47:13;;;;;;;44.78;30.02;;;;;;;9.30;72.31;93655.47;4237850;28;20663;-71
2024/03/05 02:49:14;;;;;;;46.65;32.00;;;;;;;9.27;72.54;93642.75;4231804;28;20054;-73
2024/03/05 02:51:16;;;;;;;42.70;30.05;;;;;;;9.30;72.41;93646.81;4240049;28;20102;-69
2024/03/05 02:53:19;;;;;;;44.42;32.58;;;;;;;9.29;72.64;93639.97;4232803;28;20717;-69
2024/03/05 02:55:20;;;;;;;41.85;31.65;;;;;;;9.31;72.69;93644.00;4233322;28;20135;-68
2024/03/05 02:57:23;;;;;;;43.55;32.50;;;;;;;9.34;72.07;93646.28;4229948;28;20098;-72
2024/03/05 02:59:25;;;;;;;42.30;31.63;;;;;;;9.34;72.03;93658.56;4218004;28;20054;-70
2024/03/05 03:01:27;;;;;;;45.35;31.35;;;;;;;9.39;72.02;93653.59;4231595;28;20087;-69
2024/03/05 03:03:29;;;;;;;45.42;31.98;;;;;;;9.39;71.84;93645.75;4231054;28;20044;-71
2024/03/05 03:05:31;;;;;;;48.08;32.10;;;;;;;9.34;71.99;93648.91;4217841;28;20078;-69
2024/03/05 03:07:33;;;;;;;43.28;31.40;;;;;;;9.40;72.53;93650.81;4240828;28;20043;-69
2024/03/05 03:09:35;;;;;;;41.45;30.77;;;;;;;9.41;72.21;93649.00;4242800;28;20047;-70
2024/03/05 03:11:41;;;;;;;40.67;30.20;;;;;;;9.46;71.68;93648.47;4232355;28;20086;-71
2024/03/05 03:13:44;;;;;;;43.33;30.45;;;;;;;9.43;71.64;93652.25;4240732;28;20130;-70
2024/03/05 03:15:47;;;;;;;42.33;31.97;;;;;;;9.45;71.51;93654.69;4235423;28;20043;-71
2024/03/05 03:17:49;;;;;;;46.07;29.93;;;;;;;9.45;71.85;93647.66;4242126;28;20054;-71
2024/03/05 03:19:51;;;;;;;40.80;30.05;;;;;;;9.45;70.97;93644.25;4239232;28;20045;-69
2024/03/05 03:21:53;;;;;;;47.03;29.75;;;;;;;9.43;70.96;93655.66;4233058;28;20071;-70
2024/03/05 03:23:55;;;;;;;41.38;30.08;;;;;;;9.43;71.33;93641.78;4239574;28;20047;-70
2024/03/05 03:26:00;;;;;;;42.35;31.35;;;;;;;9.40;71.05;93642.97;4227184;28;20043;-70
2024/03/05 03:28:02;;;;;;;41.53;31.25;;;;;;;9.42;70.79;93643.59;4232750;27;20107;-71
2024/03/05 03:30:05;;;;;;;39.83;29.92;;;;;;;9.48;71.05;93642.06;4226894;28;20071;-70
2024/03/05 03:32:10;;;;;;;42.03;31.10;;;;;;;9.54;71.03;93645.78;4245627;27;20149;-71
2024/03/05 03:34:16;;;;;;;39.47;29.92;;;;;;;9.56;70.57;93634.16;4239895;27;20050;-70
2024/03/05 03:36:24;;;;;;;42.47;30.58;;;;;;;9.58;70.80;93636.59;4245424;27;20050;-69
2024/03/05 03:38:26;;;;;;;42.83;30.27;;;;;;;9.58;70.94;93640.00;4226330;28;20082;-70
2024/03/05 03:40:33;;;;;;;43.03;30.25;;;;;;;9.56;71.30;93639.38;4226402;28;20497;-68
2024/03/05 03:42:35;;;;;;;39.75;30.20;;;;;;;9.60;71.18;93639.84;4240389;27;20518;-68
2024/03/05 03:44:39;;;;;;;40.67;31.33;;;;;;;9.54;71.17;93640.53;4241014;27;20052;-69
2024/03/05 03:46:41;;;;;;;39.97;30.98;;;;;;;9.50;71.15;93634.06;4224526;28;20051;-69
2024/03/05 03:48:43;;;;;;;39.95;29.92;;;;;;;9.53;71.11;93649.38;4226605;28;20071;-71
2024/03/05 03:50:44;;;;;;;42.17;30.20;;;;;;;9.57;71.20;93637.56;4245087;27;20328;-68
2024/03/05 03:52:46;;;;;;;37.08;30.50;;;;;;;9.62;70.90;93633.44;4236718;27;20443;-70
2024/03/05 03:54:49;;;;;;;37.95;29.33;;;;;;;9.63;70.58;93635.03;4243058;27;20054;-71
2024/03/05 03:56:51;;;;;;;35.60;28.85;;;;;;;9.68;70.30;93639.75;4224393;28;20235;-70
2024/03/05 03:58:53;;;;;;;43.08;30.90;;;;;;;9.70;70.39;93634.34;4210917;28;20247;-70
2024/03/05 04:00:55;;;;;;;44.00;30.50;;;;;;;9.73;70.61;93639.22;4241643;27;20047;-71
2024/03/05 04:02:58;;;;;;;40.65;29.83;;;;;;;9.65;70.41;93637.50;4244949;27;20074;-70
2024/03/05 04:05:04;;;;;;;40.85;30.50;;;;;;;9.57;70.59;93637.56;4244019;27;20047;-71
2024/03/05 04:07:06;;;;;;;37.28;29.35;;;;;;;9.58;70.43;93637.41;4242786;27;20181;-70
2024/03/05 04:09:08;;;;;;;40.17;31.23;;;;;;;9.57;70.75;93634.94;4238764;27;20567;-69
2024/03/05 04:11:10;;;;;;;44.90;31.85;;;;;;;9.59;70.84;93633.81;4245176;27;20143;-70
2024/03/05 04:13:12;;;;;;;38.33;29.08;;;;;;;9.66;71.18;93636.50;4244629;27;20131;-70
2024/03/05 04:15:18;;;;;;;40.70;29.35;;;;;;;9.67;70.30;93635.50;4216059;28;20512;-69
2024/03/05 04:17:21;;;;;;;38.28;29.65;;;;;;;9.69;70.30;93630.91;4234092;27;20069;-70
2024/03/05 04:19:23;;;;;;;41.25;30.23;;;;;;;9.71;70.13;93631.53;4244753;27;20089;-69
2024/03/05 04:21:25;;;;;;;41.35;30.73;;;;;;;9.70;70.70;93634.34;4243815;27;20051;-69
2024/03/05 04:23:27;;;;;;;41.72;30.30;;;;;;;9.71;70.33;93635.97;4244441;27;20038;-69
2024/03/05 04:25:35;;;;;;;41.20;31.33;;;;;;;9.71;70.58;93635.97;4243483;27;20104;-73
2024/03/05 04:27:41;;;;;;;39.25;30.48;;;;;;;9.70;70.85;93639.56;4243405;27;20057;-69
2024/03/05 04:29:47;;;;;;;45.25;32.35;;;;;;;9.71;70.39;93641.19;4242753;27;20068;-71
2024/03/05 04:32:05;;;;;;;40.25;29.80;;;;;;;9.71;70.21;93641.19;4222447;28;20059;-70
2024/03/05 04:34:10;;;;;;;38.17;29.60;;;;;;;9.75;70.13;93645.88;4239555;27;20480;-71
2024/03/05 04:36:14;;;;;;;41.35;30.70;;;;;;;9.76;70.05;93637.03;4243094;27;20043;-68
2024/03/05 04:38:16;;;;;;;40.03;29.25;;;;;;;9.78;70.18;93629.81;4224281;28;20048;-68
2024/03/05 04:40:18;;;;;;;39.80;29.77;;;;;;;9.79;69.95;93634.06;4244860;27;20544;-69
2024/03/05 04:42:22;;;;;;;41.13;30.85;;;;;;;9.78;69.79;93642.91;4224892;28;20085;-70
2024/03/05 04:44:25;;;;;;;41.08;28.67;;;;;;;9.77;70.05;93643.09;4224255;27;20504;-70
2024/03/05 04:46:27;;;;;;;38.13;28.00;;;;;;;9.69;69.54;93641.38;4243638;27;20124;-68
2024/03/05 04:48:30;;;;;;;33.25;26.85;;;;;;;9.67;70.17;93640.75;4243486;27;20367;-71
2024/03/05 04:50:32;;;;;;;41.42;27.80;;;;;;;9.66;69.79;93641.75;4215376;28;20044;-68
2024/03/05 04:52:34;;;;;;;38.28;27.98;;;;;;;9.64;69.41;93634.06;4239192;27;20070;-71
2024/03/05 04:54:36;;;;;;;38.70;28.05;;;;;;;9.60;69.79;93645.06;4241986;27;20402;-69
2024/03/05 04:56:38;;;;;;;37.35;25.35;;;;;;;9.58;69.86;93647.03;4242894;27;20047;-74
2024/03/05 04:58:40;;;;;;;33.85;25.52;;;;;;;9.55;69.76;93642.16;4224621;28;20408;-70
2024/03/05 05:00:42;;;;;;;33.85;25.85;;;;;;;9.42;70.03;93643.59;4237614;27;20487;-71
2024/03/05 05:02:44;;;;;;;31.20;24.63;;;;;;;9.36;70.08;93633.06;4243126;27;20081;-68
2024/03/05 05:04:47;;;;;;;32.63;23.92;;;;;;;9.32;69.70;93627.34;4241495;27;20104;-70
2024/03/05 05:06:50;;;;;;;34.10;23.17;;;;;;;9.26;69.26;93633.28;4240464;27;20126;-73
2024/03/05 05:08:51;;;;;;;36.90;23.45;;;;;;;9.26;70.13;93635.91;4238781;27;20043;-70
2024/03/05 05:10:53;;;;;;;36.03;22.17;;;;;;;9.29;69.43;93635.56;4230836;27;20111;-70
2024/03/05 05:12:55;;;;;;;31.35;24.48;;;;;;;9.35;69.41;93631.41;4221612;28;20070;-69
2024/03/05 05:14:57;;;;;;;33.47;22.45;;;;;;;9.43;69.30;93633.94;4240478;27;20090;-69
2024/03/05 05:16:59;;;;;;;35.75;23.63;;;;;;;9.49;69.12;93632.44;4238127;27;20043;-71
2024/03/05 05:19:04;;;;;;;31.45;23.10;;;;;;;9.50;68.38;93623.59;4242058;27;20211;-69
2024/03/05 05:21:09;;;;;;;32.22;22.58;;;;;;;9.50;68.13;93634.06;4243971;27;20066;-71
2024/03/05 05:23:11;;;;;;;28.23;21.17;;;;;;;9.51;68.30;93633.88;4243280;27;20043;-69
2024/03/05 05:25:14;;;;;;;32.05;22.52;;;;;;;9.56;67.94;93638.56;4239532;27;20054;-70
2024/03/05 05:27:16;;;;;;;33.85;23.08;;;;;;;9.62;68.10;93640.47;4224381;28;20500;-69
2024/03/05 05:29:18;;;;;;;29.55;22.15;;;;;;;9.65;67.76;93632.25;4238475;27;20506;-68
2024/03/05 05:31:37;;;;;;;26.90;21.30;;;;;;;9.61;67.13;93636.22;4224360;27;20048;-72
2024/03/05 05:33:39;;;;;;;29.80;21.05;;;;;;;9.66;67.88;93636.50;4242953;27;20051;-71
2024/03/05 05:35:41;;;;;;;34.95;21.50;;;;;;;9.76;67.28;93633.63;4243696;27;20523;-70
2024/03/05 05:37:44;;;;;;;31.13;20.73;;;;;;;9.71;66.85;93636.78;4223599;28;20051;-70
2024/03/05 05:39:46;;;;;;;29.08;20.42;;;;;;;9.75;66.72;93643.28;4234894;27;20206;-69
2024/03/05 05:41:49;;;;;;;24.27;19.50;;;;;;;9.79;66.60;93639.31;4240200;27;20135;-70
2024/03/05 05:43:51;;;;;;;29.98;20.65;;;;;;;9.76;66.67;93644.88;4225121;28;20112;-70
2024/03/05 05:45:52;;;;;;;27.65;19.55;;;;;;;9.80;66.54;93646.16;4223379;28;20051;-70
2024/03/05 05:47:56;;;;;;;28.83;19.73;;;;;;;9.79;65.79;93641.13;4242046;27;20071;-72
2024/03/05 05:49:58;;;;;;;28.08;18.90;;;;;;;9.86;66.19;93638.59;4240103;27;20047;-71
2024/03/05 05:52:01;;;;;;;27.75;19.77;;;;;;;9.86;66.01;93644.63;4233888;27;20371;-72
2024/03/05 05:54:10;;;;;;;25.75;18.20;;;;;;;9.87;66.10;93650.66;4238071;27;20050;-70
2024/03/05 05:56:13;;;;;;;26.50;19.35;;;;;;;9.91;65.33;93649.31;4236823;27;20062;-70
2024/03/05 05:58:15;;;;;;;22.33;17.53;;;;;;;9.95;65.50;93647.97;4221975;28;20223;-70
2024/03/05 06:00:46;;;;;;;28.23;17.70;;;;;;;9.95;65.59;93647.97;4225262;28;20047;-72
2024/03/05 06:02:45;;;;;;;24.40;18.10;;;;;;;9.94;65.22;93651.59;4225001;27;20043;-72
2024/03/05 06:04:49;;;;;;;26.53;18.83;;;;;;;10.01;65.44;93649.88;4243425;27;20134;-72
2024/03/05 06:06:51;;;;;;;;;;;;;;;10.04;65.06;93654.72;4238235;27;20726;-72
2024/03/05 06:08:53;;;;;;;22.88;18.52;;;;;;;10.12;65.02;93648.59;4224146;28;20019;-70
2024/03/05 06:10:58;;;;;;;27.23;18.33;;;;;;;10.08;64.95;93647.31;4235545;27;20138;-72
2024/03/05 06:13:01;;;;;;;27.40;18.42;;;;;;;10.15;64.55;93641.19;4219817;28;20230;-68
2024/03/05 06:15:03;;;;;;;27.88;18.40;;;;;;;10.14;64.77;93650.03;4239060;27;20074;-72
2024/03/05 06:17:05;;;;;;;25.52;16.75;;;;;;;10.14;64.49;93642.19;4221302;28;20040;-69
2024/03/05 06:19:07;;;;;;;26.85;18.35;;;;;;;10.06;64.90;93644.88;4221067;28;20128;-71
2024/03/05 06:21:09;;;;;;;26.13;18.25;;;;;;;10.04;65.32;93650.31;4219201;28;20165;-71
2024/03/05 06:23:14;;;;;;;28.17;19.80;;;;;;;10.00;64.94;93656.06;4241755;27;20047;-71
2024/03/05 06:25:17;;;;;;;30.23;20.27;;;;;;;9.98;65.64;93647.59;4241168;28;20071;-70
2024/03/05 06:27:20;;;;;;;37.80;21.65;;;;;;;9.88;66.01;93642.66;4240488;28;20108;-71
2024/03/05 06:29:22;;;;;;;29.80;21.13;;;;;;;9.83;66.34;93651.03;4243210;28;20460;-71
2024/03/05 06:31:24;;;;;;;32.67;23.75;;;;;;;9.86;66.57;93659.53;4222968;28;20162;-70
2024/03/05 06:33:28;;;;;;;33.40;22.52;;;;;;;9.78;67.14;93663.03;4240087;28;20213;-70
2024/03/05 06:35:31;;;;;;;32.60;22.75;;;;;;;9.83;67.41;93665.94;4237474;28;20047;-71
2024/03/05 06:37:34;;;;;;;34.00;21.53;;;;;;;10.01;66.86;93670.78;4242304;28;20483;-69
2024/03/05 06:39:41;;;;;;;38.17;22.30;;;;;;;10.16;65.84;93660.31;4239866;28;20378;-69
2024/03/05 06:41:47;;;;;;;29.23;21.98;;;;;;;10.24;65.60;93663.66;4241055;28;20486;-71
2024/03/05 06:43:50;;;;;;;32.15;22.60;;;;;;;10.19;66.06;93654.72;4237793;28;20047;-71
2024/03/05 06:45:52;;;;;;;32.78;22.92;;;;;;;10.15;65.97;93659.50;4234634;28;20074;-69
2024/03/05 06:47:57;;;;;;;31.42;20.23;;;;;;;10.21;65.61;93664.00;4215517;28;20043;-71
2024/03/05 06:50:07;;;;;;;31.27;21.02;;;;;;;10.25;65.43;93656.59;4224473;28;20051;-72
2024/03/05 06:56:50;;;;;;;26.55;19.58;;;;;;;10.42;64.22;93667.72;4234648;28;20097;-71
2024/03/05 06:58:53;;;;;;;32.95;20.15;;;;;;;10.41;64.80;93679.16;4235862;28;20071;-71
2024/03/05 07:00:55;;;;;;;31.92;21.10;;;;;;;10.48;64.90;93668.81;4236223;27;20162;-70
2024/03/05 07:02:57;;;;;;;32.75;19.45;;;;;;;10.43;64.46;93674.56;4244757;27;20082;-72
2024/03/05 07:05:01;;;;;;;34.55;21.08;;;;;;;10.29;65.06;93678.84;4226907;28;20112;-69
2024/03/05 07:07:03;;;;;;;24.17;19.38;;;;;;;10.36;64.99;93681.53;4244040;27;20051;-70
2024/03/05 07:09:05;;;;;;;33.13;20.90;;;;;;;10.22;65.34;93681.34;4245993;27;20526;-72
2024/03/05 07:11:09;;;;;;;31.15;18.25;;;;;;;10.43;65.04;93685.88;4244784;27;20047;-71
2024/03/05 07:13:12;;;;;;;30.48;18.85;;;;;;;10.58;64.44;93691.09;4219241;28;20040;-71
2024/03/05 07:15:14;;;;;;;32.92;17.85;;;;;;;10.70;64.30;93688.78;4244666;27;20047;-71
2024/03/05 07:17:16;;;;;;;24.58;17.48;;;;;;;10.76;63.86;93695.91;4235066;27;20059;-70
2024/03/05 07:19:20;;;;;;;25.95;17.67;;;;;;;10.71;63.88;93689.59;4237116;27;20046;-70
2024/03/05 07:21:23;;;;;;;27.23;18.55;;;;;;;10.86;63.64;93690.38;4246163;27;20554;-71
2024/03/05 07:23:28;;;;;;;26.45;18.38;;;;;;;10.81;63.67;93687.50;4242334;27;20503;-72
2024/03/05 07:25:30;;;;;;;29.65;17.02;;;;;;;10.81;63.80;93690.13;4234872;27;20047;-70
2024/03/05 07:27:32;;;;;;;27.25;17.00;;;;;;;10.92;63.53;93691.44;4233080;27;20491;-71
2024/03/05 07:29:34;;;;;;;27.30;17.33;;;;;;;11.04;63.26;93682.09;4233090;27;20044;-71
2024/03/05 07:31:36;;;;;;;29.85;18.02;;;;;;;11.13;62.57;93693.28;4223860;28;20043;-73
2024/03/05 07:33:38;;;;;;;28.23;17.48;;;;;;;11.17;63.08;93699.75;4243914;27;20065;-71
2024/03/05 07:35:40;;;;;;;25.42;15.77;;;;;;;11.08;62.53;93701.69;4244748;27;20050;-71
2024/03/05 07:37:46;;;;;;;26.58;15.98;;;;;;;11.01;62.81;93704.25;4245188;27;20596;-69
2024/03/05 07:39:48;;;;;;;29.98;17.55;;;;;;;10.96;63.32;93703.19;4241996;27;20050;-70
2024/03/05 07:41:50;;;;;;;26.45;17.05;;;;;;;11.09;63.27;93702.50;4224227;28;20708;-72
2024/03/05 07:43:52;;;;;;;26.85;16.83;;;;;;;11.12;62.70;93708.19;4242145;27;20089;-70
2024/03/05 07:45:54;;;;;;;24.67;16.55;;;;;;;11.15;62.90;93710.44;4242401;27;20411;-71
2024/03/05 07:47:57;;;;;;;25.13;16.02;;;;;;;11.15;62.48;93715.69;4244681;27;20046;-71
2024/03/05 07:49:59;;;;;;;24.80;14.63;;;;;;;11.02;62.90;93705.88;4243541;27;20547;-69
2024/03/05 07:52:02;;;;;;;24.20;15.30;;;;;;;10.99;63.16;93713.28;4242931;27;20086;-70
2024/03/05 07:54:04;;;;;;;24.23;15.80;;;;;;;10.93;63.49;93709.59;4241775;27;20073;-70
2024/03/05 07:56:06;;;;;;;24.58;16.38;;;;;;;10.94;63.78;93700.72;4226725;28;20115;-71
2024/03/05 07:58:07;;;;;;;25.25;14.38;;;;;;;10.91;63.46;93706.34;4239139;27;20079;-71
2024/03/05 08:00:12;;;;;;;19.42;14.25;;;;;;;10.81;63.51;93708.47;4225974;27;20480;-71
2024/03/05 08:02:14;;;;;;;24.65;15.90;;;;;;;10.85;64.04;93713.13;4242206;27;20051;-71
2024/03/05 08:04:16;;;;;;;24.30;13.88;;;;;;;10.93;63.77;93714.84;4242689;27;20138;-71
2024/03/05 08:06:18;;;;;;;24.70;15.60;;;;;;;10.96;63.75;93708.41;4223222;28;20079;-72
2024/03/05 08:08:20;;;;;;;24.65;14.38;;;;;;;10.99;63.53;93706.25;4215926;28;20508;-72
2024/03/05 08:10:23;;;;;;;24.20;14.75;;;;;;;11.01;63.62;93717.34;4237606;27;20052;-70
2024/03/05 08:12:25;;;;;;;25.85;15.10;;;;;;;11.07;63.60;93716.59;4236368;27;20510;-69
2024/03/05 08:14:27;;;;;;;25.73;14.73;;;;;;;11.09;63.44;93716.41;4241108;27;20118;-72
2024/03/05 08:16:33;;;;;;;25.17;15.15;;;;;;;11.06;63.32;93714.97;4239220;27;20467;-71
2024/03/05 08:18:35;;;;;;;25.55;14.75;;;;;;;11.06;63.79;93722.03;4220519;28;20108;-71
2024/03/05 08:20:38;;;;;;;27.20;14.98;;;;;;;10.94;63.56;93715.66;4241050;27;20039;-71
2024/03/05 08:22:40;;;;;;;28.52;16.35;;;;;;;10.91;63.94;93726.50;4215421;28;20074;-71
2024/03/05 08:24:42;;;;;;;21.98;14.95;;;;;;;10.90;63.97;93724.88;4239683;27;20054;-72
2024/03/05 08:26:44;;;;;;;26.77;15.07;;;;;;;10.85;63.53;93723.63;4240735;27;20050;-71
2024/03/05 08:28:46;;;;;;;28.85;14.57;;;;;;;10.92;64.07;93728.13;4222906;28;20058;-72
2024/03/05 08:30:48;;;;;;;22.55;14.80;;;;;;;10.85;64.18;93728.06;4224645;28;20493;-74
2024/03/05 08:32:52;;;;;;;24.17;14.73;;;;;;;10.80;64.36;93730.44;4240081;27;20134;-72
2024/03/05 08:34:54;;;;;;;19.23;14.00;;;;;;;10.95;64.65;93727.75;4220993;28;20055;-70
2024/03/05 08:36:56;;;;;;;24.38;14.52;;;;;;;11.02;63.83;93726.84;4232966;27;20066;-71
2024/03/05 08:38:58;;;;;;;25.05;14.20;;;;;;;11.07;63.24;93721.03;4241072;27;20475;-70
2024/03/05 08:41:01;;;;;;;24.63;14.52;;;;;;;11.06;63.63;93725.47;4243148;27;20535;-70
2024/03/05 08:43:03;;;;;;;24.05;14.57;;;;;;;11.18;63.71;93731.00;4241624;27;20161;-71
2024/03/05 08:45:07;;;;;;;22.05;14.73;;;;;;;11.31;63.26;93725.09;4239770;27;20051;-70
2024/03/05 08:47:12;;;;;;;23.83;13.82;;;;;;;11.44;62.66;93729.66;4242519;27;20601;-70
2024/03/05 08:49:14;;;;;;;23.80;13.32;;;;;;;11.55;62.25;93730.97;4226522;27;20058;-71
2024/03/05 08:51:17;;;;;;;21.50;13.52;;;;;;;11.61;61.81;93722.34;4243736;27;20349;-71
2024/03/05 08:53:19;;;;;;;21.73;14.07;;;;;;;11.71;61.56;93719.41;4241862;27;20651;-70
2024/03/05 08:55:21;;;;;;;26.55;14.35;;;;;;;11.71;61.45;93722.84;4234190;27;20421;-71
2024/03/05 08:57:26;;;;;;;23.08;13.95;;;;;;;11.63;61.29;93726.38;4239163;27;20209;-72
2024/03/05 08:59:28;;;;;;;24.05;13.85;;;;;;;11.67;61.32;93726.84;4241198;27;20043;-72
2024/03/05 09:01:30;;;;;;;19.83;13.38;;;;;;;11.73;61.16;93731.31;4239382;27;20047;-70
2024/03/05 09:03:32;;;;;;;19.00;12.65;;;;;;;11.83;61.03;93726.56;4236459;27;20075;-72
2024/03/05 09:05:35;;;;;;;22.55;13.50;;;;;;;11.88;60.71;93729.44;4237531;27;20050;-72
2024/03/05 09:07:41;;;;;;;25.50;15.90;;;;;;;11.95;60.29;93733.94;4231953;27;20475;-72
2024/03/05 09:09:44;;;;;;;21.23;12.50;;;;;;;11.87;60.11;93730.44;4244513;27;20050;-73
2024/03/05 09:11:46;;;;;;;23.35;11.50;;;;;;;11.62;60.08;93732.66;4225148;28;20063;-72
2024/03/05 09:13:48;;;;;;;21.55;13.00;;;;;;;11.61;60.76;93738.06;4242848;27;20085;-70
2024/03/05 09:15:53;;;;;;;19.88;11.57;;;;;;;11.62;60.54;93731.84;4243537;27;20043;-72
2024/03/05 09:17:55;;;;;;;20.60;11.23;;;;;;;11.63;60.47;93731.63;4243696;27;20079;-70
2024/03/05 09:20:01;;;;;;;21.45;12.23;;;;;;;11.81;60.14;93733.81;4242925;27;20051;-68
2024/03/05 09:22:04;;;;;;;20.48;12.05;;;;;;;11.72;59.57;93718.38;4243333;27;20569;-71
2024/03/05 09:24:06;;;;;;;19.40;13.35;;;;;;;11.61;59.78;93723.13;4242738;27;20066;-72
2024/03/05 09:26:08;;;;;;;19.77;11.80;;;;;;;11.70;60.12;93721.19;4232677;27;20093;-72
2024/03/05 09:28:10;;;;;;;20.38;14.02;;;;;;;11.61;60.23;93722.34;4241045;27;20051;-72
2024/03/05 09:30:18;;;;;;;27.67;13.15;;;;;;;11.74;60.26;93722.44;4223362;28;20047;-74
2024/03/05 09:32:20;;;;;;;26.00;13.43;;;;;;;11.77;60.06;93716.03;4238171;27;20084;-73
2024/03/05 09:34:22;;;;;;;28.13;14.88;;;;;;;12.17;59.13;93721.56;4238572;27;20066;-72